Lansdowne House, Canada
Current Conditions -  °F | °C
As of 12:00 AM on Sunday 23 Nov 2014 (Local Time) from CYLH Reporting Station
Overcast Overcast  
Wind Chill: -15°   Ceiling: 12000
Heat Index: -15°   Visibility: 9mi
Dew Point: -16°   Wind: 2mph
Humidity: 92%   Direction: 230°SW
Pressure: 29.78"   Gusts: NA
Location:  52.21°N, 87.89°W
Report Text: CYLH 230500Z AUTO 23002KT 9SM BKN120 BKN160 OVC230 M15/M16 A2978 RMK PRESRR SLP107
Loading
Personal Weather Stations






























Interactive Weather Map New forecast layout! Learn more

10-Day Weather Forecast

Advertisements
Track Severe Weather on mobile